Aviation Digital Data Service (ADDS)

Output produced by TAFs form (0951 UTC 22 September 2017)
found at http://www.aviationweather.gov/adds/tafs/
 
METAR text: LHBP 220930Z 30007KT 250V330 9999 BKN033 16/09 Q1017 NOSIG
Conditions at: LHBP (BUDAPEST/FERIHEG, HU) observed 0930 UTC 22 September 2017
Temperature: 16.0°C (61°F)
Dewpoint: 9.0°C (48°F) [RH = 63%]
Pressure (altimeter): 30.03 inches Hg (1017.0 mb)
Winds: from the WNW (300 degrees) at 8 MPH (7 knots; 3.6 m/s)
Visibility: 6 or more miles (10+ km)
Ceiling: 3300 feet AGL
Clouds: broken clouds at 3300 feet AGL
Weather: no significant weather observed at this time

Forecast for: LHBP (BUDAPEST/FERIHEG, HU)
Text: TAF LHBP 220515Z 2206/2306 32009KT CAVOK
Forecast period: 0600 UTC 22 September 2017 to 0600 UTC 23 September 2017
Forecast type: FROM: standard forecast or significant change
Winds: from the NW (320 degrees) at 10 MPH (9 knots; 4.7 m/s)
Visibility: 6 or more miles (10+ km)
Clouds: not forecast
Weather: NSW  (no significant weather)
Text: TEMPO 2206/2217 BKN030
Forecast period: 0600 to 1700 UTC 22 September 2017
Forecast type: TEMPORARY: The following changes expected for less than half the time period
Ceiling: 3000 feet AGL
Clouds: broken clouds at 3000 feet AGL
Weather: no significant weather forecast for this period